createdAt,value
2022-09-15T00:00:11.988Z,18.56
2022-09-15T00:02:41.166Z,18.47
2022-09-15T00:05:11.546Z,18.45
2022-09-15T00:07:42.144Z,18.52
2022-09-15T00:10:11.680Z,18.58
2022-09-15T00:12:40.781Z,18.70
2022-09-15T00:15:14.783Z,18.70
2022-09-15T00:17:44.941Z,18.72
2022-09-15T00:20:13.970Z,18.73
2022-09-15T00:22:44.673Z,18.79
2022-09-15T00:25:14.374Z,18.74
2022-09-15T00:27:43.998Z,18.74
2022-09-15T00:30:14.000Z,18.68
2022-09-15T00:32:43.047Z,18.71
2022-09-15T00:35:12.217Z,18.72
2022-09-15T00:37:41.276Z,18.76
2022-09-15T00:40:12.380Z,18.70
2022-09-15T00:42:41.613Z,18.72
2022-09-15T00:45:18.412Z,18.72
2022-09-15T00:47:47.827Z,18.71
2022-09-15T00:50:20.027Z,18.70
2022-09-15T00:52:52.865Z,18.66
2022-09-15T00:55:29.758Z,18.69
2022-09-15T00:58:04.069Z,18.72
2022-09-15T01:00:33.391Z,18.72
2022-09-15T01:03:03.981Z,18.67
2022-09-15T01:05:37.631Z,18.51
2022-09-15T01:08:11.818Z,18.40
2022-09-15T01:10:42.832Z,18.49
2022-09-15T01:13:15.167Z,18.45
2022-09-15T01:15:58.292Z,18.62
2022-09-15T01:18:40.964Z,18.39
2022-09-15T01:21:20.701Z,18.39
2022-09-15T01:24:41.909Z,18.51
2022-09-15T01:28:09.317Z,18.52
2022-09-15T01:30:42.233Z,18.53
2022-09-15T01:33:24.012Z,18.48
2022-09-15T01:36:11.079Z,18.47
2022-09-15T01:38:50.691Z,18.52
2022-09-15T01:41:27.785Z,18.40
2022-09-15T01:44:06.217Z,18.38
2022-09-15T01:46:46.947Z,18.56
2022-09-15T01:49:21.275Z,18.33
2022-09-15T01:51:53.950Z,18.49
2022-09-15T01:54:32.793Z,18.50
2022-09-15T01:57:03.562Z,18.42
2022-09-15T01:59:32.777Z,18.29
2022-09-15T02:02:06.985Z,18.20
2022-09-15T02:04:41.897Z,18.26
2022-09-15T02:07:20.551Z,18.45
2022-09-15T02:09:57.713Z,18.28
2022-09-15T02:12:34.895Z,18.22
2022-09-15T02:15:09.010Z,18.22
2022-09-15T02:17:47.367Z,18.16
2022-09-15T02:20:23.791Z,18.14
2022-09-15T02:22:57.586Z,18.11
2022-09-15T02:25:33.042Z,18.17
2022-09-15T02:28:07.388Z,18.18
2022-09-15T02:30:42.148Z,18.13
2022-09-15T02:33:19.777Z,18.19
2022-09-15T02:35:49.028Z,18.22
2022-09-15T02:38:18.349Z,18.25
2022-09-15T02:40:50.293Z,18.22
2022-09-15T02:43:19.953Z,18.23
2022-09-15T02:45:49.701Z,18.27
2022-09-15T02:48:20.327Z,18.30
2022-09-15T02:50:49.405Z,18.32
2022-09-15T02:53:18.485Z,18.27
2022-09-15T02:55:47.600Z,18.29
2022-09-15T02:58:16.610Z,18.36
2022-09-15T03:00:45.705Z,18.27
2022-09-15T03:03:15.254Z,18.31
2022-09-15T03:05:45.808Z,18.15
2022-09-15T03:08:15.150Z,18.03
2022-09-15T03:10:44.197Z,18.08
2022-09-15T03:13:13.287Z,18.09
2022-09-15T03:15:42.505Z,18.03
2022-09-15T03:18:13.209Z,18.37
2022-09-15T03:20:42.306Z,18.35
2022-09-15T03:23:12.751Z,18.33
2022-09-15T03:25:41.845Z,18.21
2022-09-15T03:28:11.165Z,18.38
2022-09-15T03:30:40.604Z,18.19
2022-09-15T03:33:09.818Z,18.11
2022-09-15T03:35:39.400Z,18.06
2022-09-15T03:38:08.543Z,18.02
2022-09-15T03:40:39.018Z,17.97
2022-09-15T03:43:08.064Z,17.91
2022-09-15T03:45:37.906Z,17.97
2022-09-15T03:48:07.965Z,17.96
2022-09-15T03:50:37.154Z,17.82
2022-09-15T03:53:06.200Z,17.75
2022-09-15T03:55:35.228Z,17.76
2022-09-15T03:58:05.752Z,17.79
2022-09-15T04:00:35.367Z,17.80
2022-09-15T04:03:04.502Z,17.83
2022-09-15T04:05:33.778Z,17.81
2022-09-15T04:08:03.623Z,17.77
2022-09-15T04:10:33.260Z,17.74
2022-09-15T04:13:02.305Z,17.71
2022-09-15T04:15:32.900Z,17.72
2022-09-15T04:18:02.048Z,17.63
2022-09-15T04:20:31.732Z,17.52
2022-09-15T04:23:00.943Z,17.43
2022-09-15T04:25:30.126Z,17.40
2022-09-15T04:27:59.582Z,17.39
2022-09-15T04:30:28.704Z,17.37
2022-09-15T04:32:59.273Z,17.32
2022-09-15T04:35:28.991Z,17.24
2022-09-15T04:37:58.101Z,17.27
2022-09-15T04:40:29.715Z,17.28
2022-09-15T04:42:58.962Z,17.26
2022-09-15T04:45:28.602Z,17.25
2022-09-15T04:47:59.079Z,17.24
2022-09-15T04:50:28.292Z,17.22
2022-09-15T04:53:04.453Z,17.32
2022-09-15T04:55:34.131Z,17.40
2022-09-15T04:58:04.537Z,17.53
2022-09-15T05:00:43.119Z,17.57
2022-09-15T05:03:17.215Z,17.67
2022-09-15T05:05:48.845Z,17.68
2022-09-15T05:08:18.048Z,17.38
2022-09-15T05:10:48.303Z,17.37
2022-09-15T05:13:17.448Z,17.39
2022-09-15T05:15:46.923Z,17.41
2022-09-15T05:18:17.484Z,17.53
2022-09-15T05:20:46.628Z,17.63
2022-09-15T05:23:15.773Z,17.64
2022-09-15T05:25:44.982Z,17.70
2022-09-15T05:28:14.065Z,17.74
2022-09-15T05:30:44.568Z,17.81
2022-09-15T05:33:13.861Z,17.97
2022-09-15T05:35:51.954Z,18.05
2022-09-15T05:38:21.181Z,18.07
2022-09-15T05:40:50.663Z,18.18
2022-09-15T05:43:20.357Z,18.30
2022-09-15T05:45:56.220Z,18.46
2022-09-15T05:48:26.341Z,18.55
2022-09-15T05:50:58.245Z,18.55
2022-09-15T05:53:28.485Z,18.54
2022-09-15T05:55:58.665Z,18.54
2022-09-15T05:58:28.486Z,18.67
2022-09-15T06:00:57.800Z,18.61
2022-09-15T06:03:30.844Z,18.61
2022-09-15T06:06:03.523Z,18.54
2022-09-15T06:08:33.818Z,18.77
2022-09-15T06:11:05.637Z,18.56
2022-09-15T06:13:35.352Z,18.55
2022-09-15T06:16:08.553Z,18.57
2022-09-15T06:18:39.732Z,18.22
2022-09-15T06:21:13.154Z,18.38
2022-09-15T06:23:46.098Z,18.45
2022-09-15T06:26:23.153Z,18.45
2022-09-15T06:28:54.745Z,18.45
2022-09-15T06:31:24.980Z,18.57
2022-09-15T06:33:57.768Z,18.36
2022-09-15T06:36:33.718Z,18.27
2022-09-15T06:39:03.233Z,18.36
2022-09-15T06:41:58.502Z,18.45
2022-09-15T06:44:22.278Z,18.56
2022-09-15T06:46:51.441Z,18.67
2022-09-15T06:49:20.761Z,18.71
2022-09-15T06:51:51.236Z,18.92
2022-09-15T06:54:20.565Z,19.07
2022-09-15T06:56:50.905Z,19.09
2022-09-15T06:59:20.093Z,19.26
2022-09-15T07:01:53.018Z,19.45
2022-09-15T07:04:23.017Z,19.58
2022-09-15T07:06:53.719Z,19.74
2022-09-15T07:09:22.971Z,19.76
2022-09-15T07:11:52.119Z,19.82
2022-09-15T07:14:30.780Z,19.83
2022-09-15T07:17:04.308Z,19.91
2022-09-15T07:19:33.539Z,20.05
2022-09-15T07:22:05.037Z,19.74
2022-09-15T07:24:34.161Z,19.61
2022-09-15T07:27:03.213Z,19.69
2022-09-15T07:29:37.130Z,19.98
2022-09-15T07:32:07.103Z,20.50
2022-09-15T07:34:36.239Z,20.80
2022-09-15T07:37:06.720Z,21.09
2022-09-15T07:39:35.797Z,21.13
2022-09-15T07:42:05.880Z,21.10
2022-09-15T07:44:35.806Z,21.14
2022-09-15T07:47:05.294Z,21.27
2022-09-15T07:49:34.513Z,21.40
2022-09-15T07:52:03.845Z,21.48
2022-09-15T07:54:35.594Z,21.42
2022-09-15T07:57:06.568Z,21.60
2022-09-15T07:59:40.572Z,21.68
2022-09-15T08:02:18.425Z,21.91
2022-09-15T08:04:47.636Z,22.00
2022-09-15T08:07:16.577Z,22.10
2022-09-15T08:09:49.349Z,22.04
2022-09-15T08:12:19.057Z,21.83
2022-09-15T08:14:48.180Z,21.83
2022-09-15T08:17:17.229Z,21.89
2022-09-15T08:19:46.423Z,22.05
2022-09-15T08:22:15.524Z,21.91
2022-09-15T08:24:45.840Z,21.79
2022-09-15T08:27:16.296Z,21.62
2022-09-15T08:29:45.561Z,21.96
2022-09-15T08:32:14.973Z,22.38
2022-09-15T08:34:44.076Z,22.79
2022-09-15T08:37:13.156Z,23.24
2022-09-15T08:39:42.313Z,23.68
2022-09-15T08:42:15.559Z,24.38
2022-09-15T08:44:52.256Z,25.00
2022-09-15T08:47:28.793Z,25.45
2022-09-15T08:50:10.297Z,25.99
2022-09-15T08:52:44.208Z,26.22
2022-09-15T08:55:20.366Z,26.08
2022-09-15T08:57:49.478Z,26.29
2022-09-15T09:00:20.413Z,26.11
2022-09-15T09:03:21.326Z,25.90
2022-09-15T09:05:59.129Z,26.01
2022-09-15T09:09:00.297Z,26.44
2022-09-15T09:11:44.495Z,26.42
2022-09-15T09:14:26.034Z,26.49
2022-09-15T09:17:19.347Z,26.35
2022-09-15T09:20:04.962Z,26.62
2022-09-15T09:22:38.813Z,26.76
2022-09-15T09:25:26.109Z,27.04
2022-09-15T09:27:59.212Z,27.42
2022-09-15T09:30:34.084Z,27.48
2022-09-15T09:33:26.687Z,26.91
2022-09-15T09:35:56.905Z,26.63
2022-09-15T09:38:31.013Z,26.38
2022-09-15T09:41:02.471Z,26.19
2022-09-15T09:43:33.138Z,26.01
2022-09-15T09:46:02.409Z,25.77
2022-09-15T09:48:33.074Z,25.74
2022-09-15T09:51:02.362Z,25.76
2022-09-15T09:53:33.251Z,25.74
2022-09-15T09:56:19.330Z,25.55
2022-09-15T09:58:49.012Z,25.34
2022-09-15T10:01:20.754Z,25.11
2022-09-15T10:03:51.254Z,25.12
2022-09-15T10:06:23.239Z,25.21
2022-09-15T10:08:58.640Z,25.34
2022-09-15T10:11:47.208Z,25.49
2022-09-15T10:14:22.311Z,25.54
2022-09-15T10:17:02.625Z,25.69
2022-09-15T10:19:37.729Z,25.92
2022-09-15T10:22:06.949Z,26.11
2022-09-15T10:24:40.068Z,26.17
2022-09-15T10:27:26.674Z,26.57
2022-09-15T10:29:56.555Z,26.55
2022-09-15T10:32:31.138Z,26.42
2022-09-15T10:35:13.040Z,26.08
2022-09-15T10:38:05.034Z,25.51
2022-09-15T10:40:41.026Z,24.99
2022-09-15T10:43:33.952Z,24.73
2022-09-15T10:46:12.375Z,24.51
2022-09-15T10:49:00.284Z,24.29
2022-09-15T10:51:46.509Z,24.28
2022-09-15T10:54:46.394Z,24.44
2022-09-15T10:57:36.349Z,24.64
2022-09-15T11:00:13.153Z,24.69
2022-09-15T11:03:12.795Z,24.60
2022-09-15T11:05:57.423Z,24.01
2022-09-15T11:09:11.506Z,23.34
2022-09-15T11:11:55.970Z,23.08
2022-09-15T11:14:41.991Z,22.73
2022-09-15T11:17:35.376Z,22.62
2022-09-15T11:20:31.682Z,22.28
2022-09-15T11:23:08.777Z,21.63
2022-09-15T11:26:08.944Z,20.19
2022-09-15T11:28:52.664Z,19.93
2022-09-15T11:31:31.926Z,19.86
2022-09-15T11:34:30.222Z,19.33
2022-09-15T11:37:12.431Z,19.20
2022-09-15T11:39:53.793Z,19.22
2022-09-15T11:42:33.724Z,19.04
2022-09-15T11:45:09.415Z,18.99
2022-09-15T11:47:48.421Z,19.00
2022-09-15T11:50:21.422Z,18.96
2022-09-15T11:52:58.864Z,19.07
2022-09-15T11:55:36.321Z,19.05
2022-09-15T11:58:22.025Z,18.93
2022-09-15T12:01:01.468Z,18.94
2022-09-15T12:03:38.940Z,18.93
2022-09-15T12:06:17.097Z,18.63
2022-09-15T12:09:02.792Z,18.79
2022-09-15T12:11:40.958Z,18.84
2022-09-15T12:14:17.933Z,19.07
2022-09-15T12:16:47.667Z,19.19
2022-09-15T12:19:26.018Z,19.50
2022-09-15T12:22:00.876Z,19.77
2022-09-15T12:24:37.959Z,20.03
2022-09-15T12:27:12.952Z,20.17
2022-09-15T12:29:50.046Z,20.26
2022-09-15T12:32:26.393Z,20.39
2022-09-15T12:35:30.090Z,20.61
2022-09-15T12:38:01.122Z,20.74
2022-09-15T12:40:37.941Z,20.98
2022-09-15T12:43:23.046Z,20.98
2022-09-15T12:46:00.854Z,21.22
2022-09-15T12:48:32.680Z,21.70
2022-09-15T12:51:05.338Z,21.92
2022-09-15T12:53:43.421Z,22.32
2022-09-15T12:56:25.773Z,23.25
2022-09-15T12:58:55.758Z,23.86
2022-09-15T13:01:47.019Z,23.06
2022-09-15T13:04:53.533Z,22.09
2022-09-15T13:07:36.371Z,22.07
2022-09-15T13:10:34.592Z,22.32
2022-09-15T13:13:21.524Z,22.57
2022-09-15T13:15:54.535Z,22.80
2022-09-15T13:18:26.528Z,23.27
2022-09-15T13:21:01.551Z,23.27
2022-09-15T13:23:39.329Z,22.91
2022-09-15T13:26:13.488Z,22.25
2022-09-15T13:28:43.570Z,21.63
2022-09-15T13:31:31.015Z,21.32
2022-09-15T13:35:04.611Z,20.94
2022-09-15T13:38:31.596Z,20.77
2022-09-15T13:41:43.066Z,21.30
2022-09-15T13:45:04.382Z,21.48
2022-09-15T13:47:53.038Z,21.27
2022-09-15T13:50:31.677Z,21.36
2022-09-15T13:53:21.721Z,21.26
2022-09-15T13:55:55.685Z,21.12
2022-09-15T14:01:18.252Z,20.92
2022-09-15T14:03:50.728Z,20.95
2022-09-15T14:06:25.207Z,20.91
2022-09-15T14:08:58.709Z,20.83
2022-09-15T14:11:31.782Z,20.75
2022-09-15T14:14:03.081Z,20.66
2022-09-15T14:16:36.809Z,20.62
2022-09-15T14:19:33.787Z,20.92
2022-09-15T14:22:24.948Z,21.02
2022-09-15T14:24:54.369Z,21.12
2022-09-15T14:27:27.384Z,21.12
2022-09-15T14:29:58.835Z,21.09
2022-09-15T14:32:29.960Z,20.97
2022-09-15T14:35:05.521Z,20.86
2022-09-15T14:37:37.232Z,20.80
2022-09-15T14:40:24.460Z,20.72
2022-09-15T14:42:53.911Z,20.70
2022-09-15T14:48:18.416Z,20.61
2022-09-15T14:50:56.257Z,20.54
2022-09-15T14:53:29.502Z,20.48
2022-09-15T14:56:07.831Z,20.39
2022-09-15T14:58:42.631Z,20.25
2022-09-15T15:01:18.263Z,20.15
2022-09-15T15:03:58.188Z,19.98
2022-09-15T15:06:37.324Z,19.92
2022-09-15T15:09:15.630Z,19.90
2022-09-15T15:11:44.864Z,19.92
2022-09-15T15:14:15.893Z,19.73
2022-09-15T15:16:53.662Z,19.75
2022-09-15T15:19:34.278Z,19.74
2022-09-15T15:22:20.652Z,19.67
2022-09-15T15:24:54.083Z,19.60
2022-09-15T15:27:43.072Z,19.75
2022-09-15T15:30:47.140Z,19.82
2022-09-15T15:33:24.697Z,19.80
2022-09-15T15:36:09.960Z,19.71
2022-09-15T15:38:47.230Z,19.65
2022-09-15T15:41:23.286Z,19.74
2022-09-15T15:44:07.930Z,19.66
2022-09-15T15:46:53.990Z,19.58
2022-09-15T15:49:27.577Z,19.51
2022-09-15T15:51:57.706Z,19.36
2022-09-15T15:54:27.310Z,19.36
2022-09-15T15:57:23.541Z,19.39
2022-09-15T15:59:57.440Z,19.28
2022-09-15T16:02:28.338Z,19.13
2022-09-15T16:04:57.382Z,19.05
2022-09-15T16:07:31.117Z,18.99
2022-09-15T16:10:03.024Z,18.92
2022-09-15T16:12:35.386Z,18.98
2022-09-15T16:15:13.176Z,18.85
2022-09-15T16:17:45.998Z,18.95
2022-09-15T16:20:19.025Z,19.21
2022-09-15T16:22:49.229Z,19.07
2022-09-15T16:25:23.870Z,18.96
2022-09-15T16:27:54.413Z,18.74
2022-09-15T16:30:23.888Z,18.67
2022-09-15T16:32:53.019Z,18.58
2022-09-15T16:35:36.457Z,18.60
2022-09-15T16:38:05.862Z,18.61
2022-09-15T16:40:37.027Z,18.53
2022-09-15T16:43:13.773Z,18.47
2022-09-15T16:45:43.566Z,18.55
2022-09-15T16:48:13.448Z,18.40
2022-09-15T16:51:02.199Z,18.29
2022-09-15T16:53:32.996Z,18.28
2022-09-15T16:56:02.627Z,18.49
2022-09-15T16:58:33.337Z,18.47
2022-09-15T17:01:03.683Z,18.31
2022-09-15T17:03:33.345Z,18.08
2022-09-15T17:06:03.355Z,18.15
2022-09-15T17:08:34.386Z,18.13
2022-09-15T17:11:06.820Z,17.91
2022-09-15T17:13:37.585Z,17.86
2022-09-15T17:16:07.677Z,17.77
2022-09-15T17:18:36.884Z,17.69
2022-09-15T17:21:06.167Z,17.68
2022-09-15T17:23:38.749Z,17.72
2022-09-15T17:26:12.864Z,17.80
2022-09-15T17:28:43.487Z,17.84
2022-09-15T17:31:18.389Z,17.82
2022-09-15T17:33:49.345Z,17.84
2022-09-15T17:36:20.359Z,17.86
2022-09-15T17:38:49.683Z,17.81
2022-09-15T17:41:20.979Z,17.82
2022-09-15T17:43:52.088Z,17.81
2022-09-15T17:46:21.562Z,17.74
2022-09-15T17:48:51.513Z,17.79
2022-09-15T17:51:20.910Z,17.72
2022-09-15T17:53:50.226Z,17.75
2022-09-15T17:56:19.328Z,17.82
2022-09-15T17:58:48.477Z,17.74
2022-09-15T18:01:19.179Z,17.64
2022-09-15T18:03:48.685Z,17.81
2022-09-15T18:06:18.612Z,17.73
2022-09-15T18:08:47.639Z,17.53
2022-09-15T18:11:16.806Z,17.48
2022-09-15T18:13:47.679Z,17.36
2022-09-15T18:16:18.377Z,17.36
2022-09-15T18:18:47.530Z,17.29
2022-09-15T18:21:27.042Z,17.22
2022-09-15T18:23:56.503Z,17.27
2022-09-15T18:26:26.843Z,17.26
2022-09-15T18:28:56.313Z,17.28
2022-09-15T18:31:27.395Z,17.26
2022-09-15T18:33:56.869Z,17.42
2022-09-15T18:36:26.054Z,17.41
2022-09-15T18:38:56.553Z,17.49
2022-09-15T18:41:27.757Z,17.49
2022-09-15T18:43:57.142Z,17.47
2022-09-15T18:46:27.716Z,17.41
2022-09-15T18:48:57.416Z,17.48
2022-09-15T18:51:40.923Z,17.43
2022-09-15T18:54:15.665Z,17.37
2022-09-15T18:56:44.746Z,17.34
2022-09-15T18:59:17.517Z,17.34
2022-09-15T19:01:48.385Z,17.34
2022-09-15T19:04:18.187Z,17.30
2022-09-15T19:06:47.418Z,17.27
2022-09-15T19:09:16.918Z,17.29
2022-09-15T19:11:46.251Z,17.31
2022-09-15T19:14:15.280Z,17.34
2022-09-15T19:16:56.991Z,17.27
2022-09-15T19:19:28.317Z,17.28
2022-09-15T19:21:57.394Z,17.34
2022-09-15T19:24:32.101Z,17.36
2022-09-15T19:27:01.547Z,17.36
2022-09-15T19:29:34.718Z,17.46
2022-09-15T19:32:05.514Z,17.50
2022-09-15T19:34:37.097Z,17.58
2022-09-15T19:37:11.384Z,17.35
2022-09-15T19:39:42.402Z,17.35
2022-09-15T19:42:12.748Z,17.48
2022-09-15T19:44:42.901Z,17.40
2022-09-15T19:47:12.077Z,17.19
2022-09-15T19:49:42.533Z,17.16
2022-09-15T19:52:12.915Z,17.14
2022-09-15T19:54:42.098Z,17.04
2022-09-15T19:57:11.481Z,16.92
2022-09-15T19:59:40.719Z,16.98
2022-09-15T20:02:12.012Z,17.07
2022-09-15T20:04:42.688Z,16.86
2022-09-15T20:07:12.579Z,16.74
2022-09-15T20:09:42.213Z,16.75
2022-09-15T20:12:11.417Z,16.65
2022-09-15T20:14:41.580Z,16.63
2022-09-15T20:17:10.996Z,16.71
2022-09-15T20:19:40.025Z,16.63
2022-09-15T20:22:10.598Z,16.52
2022-09-15T20:24:39.803Z,16.55
2022-09-15T20:27:09.221Z,16.71
2022-09-15T20:29:38.782Z,16.67
2022-09-15T20:32:08.306Z,16.73
2022-09-15T20:34:37.454Z,16.45
2022-09-15T20:37:07.150Z,16.32
2022-09-15T20:39:38.174Z,16.40
2022-09-15T20:42:07.745Z,16.37
2022-09-15T20:44:36.963Z,16.28
2022-09-15T20:47:06.607Z,16.26
2022-09-15T20:49:35.687Z,16.39
2022-09-15T20:52:04.841Z,16.33
2022-09-15T20:54:34.600Z,16.38
2022-09-15T20:57:05.205Z,16.32
2022-09-15T20:59:34.476Z,16.45
2022-09-15T21:02:04.763Z,16.47
2022-09-15T21:04:34.504Z,16.45
2022-09-15T21:07:03.535Z,16.68
2022-09-15T21:09:32.595Z,16.47
2022-09-15T21:12:01.670Z,16.46
2022-09-15T21:14:32.232Z,16.50
2022-09-15T21:17:01.337Z,16.42
2022-09-15T21:19:30.990Z,16.40
2022-09-15T21:22:00.112Z,16.39
2022-09-15T21:24:29.097Z,16.58
2022-09-15T21:27:15.782Z,16.56
2022-09-15T21:29:46.315Z,16.51
2022-09-15T21:32:16.186Z,16.48
2022-09-15T21:34:47.324Z,16.47
2022-09-15T21:37:16.655Z,16.51
2022-09-15T21:39:45.935Z,16.47
2022-09-15T21:42:15.088Z,16.45
2022-09-15T21:44:51.796Z,16.43
2022-09-15T21:47:20.815Z,16.51
2022-09-15T21:49:51.829Z,16.49
2022-09-15T21:52:21.748Z,16.39
2022-09-15T21:54:50.929Z,16.38
2022-09-15T21:57:20.077Z,16.34
2022-09-15T21:59:50.537Z,16.28
2022-09-15T22:02:19.660Z,16.39
2022-09-15T22:04:48.856Z,16.28
2022-09-15T22:07:19.460Z,16.24
2022-09-15T22:09:48.557Z,16.25
2022-09-15T22:12:17.668Z,16.30
2022-09-15T22:14:46.799Z,16.40
2022-09-15T22:17:17.378Z,16.42
2022-09-15T22:19:46.486Z,16.48
2022-09-15T22:22:15.854Z,16.49
2022-09-15T22:24:45.120Z,16.49
2022-09-15T22:27:14.206Z,16.47
2022-09-15T22:29:43.375Z,16.52
2022-09-15T22:32:12.480Z,16.51
2022-09-15T22:34:43.028Z,16.61
2022-09-15T22:37:12.567Z,16.61
2022-09-15T22:39:58.557Z,16.51
2022-09-15T22:42:28.938Z,16.48
2022-09-15T22:44:58.001Z,16.40
2022-09-15T22:47:29.487Z,16.40
2022-09-15T22:49:59.878Z,16.46
2022-09-15T22:52:28.990Z,16.47
2022-09-15T22:54:58.109Z,16.72
2022-09-15T22:57:27.072Z,16.94
2022-09-15T22:59:56.207Z,16.86
2022-09-15T23:02:25.335Z,16.64
2022-09-15T23:04:54.857Z,16.55
2022-09-15T23:07:25.491Z,16.49
2022-09-15T23:09:54.573Z,16.44
2022-09-15T23:12:23.682Z,16.47
2022-09-15T23:14:52.811Z,16.40
2022-09-15T23:17:22.001Z,16.41
2022-09-15T23:19:51.142Z,16.44
2022-09-15T23:22:20.394Z,16.41
2022-09-15T23:24:50.906Z,16.42
2022-09-15T23:27:20.193Z,16.37
2022-09-15T23:29:49.555Z,16.39
2022-09-15T23:32:18.632Z,16.36
2022-09-15T23:34:47.805Z,16.40
2022-09-15T23:37:16.900Z,16.41
2022-09-15T23:39:46.077Z,16.44
2022-09-15T23:42:18.897Z,16.42
2022-09-15T23:44:48.220Z,16.43
2022-09-15T23:47:17.786Z,16.35
2022-09-15T23:49:46.934Z,16.36
2022-09-15T23:52:16.092Z,16.31
2022-09-15T23:54:45.148Z,16.34
2022-09-15T23:57:14.186Z,16.38
2022-09-15T23:59:44.657Z,16.47
